EHVK

Volkel Air Base Airport

Uden, The Netherlands
METAR EHVK 171155Z AUTO 23009KT 210V270 7000 -RA FEW005 SCT006 BKN007 FEW015CB 07/07 Q1017 YLO 21010KT 8000 SCT012 BKN015 TEMPO 4500 DZRA SCT006 BKN010
Observed Flight Rules
Dec-17 @ 11:55 UTC (12 minutes ago) Instrument Flight Rules
Wind Visibility Clouds Conditions
230° at 9 knots 7,001 meters
  • Few at 500' AGL
  • Scattered at 600' AGL
  • Broken at 700' AGL
  • Few at 1,500' AGL
  • Light Rain
Temperatures Readings
Current 7°C / 45°F
Dewpoint 7°C / 45°F
Humidity 100%
Altimeter 30.03" Hg
Pressure 1017 hPa
Elevation 21
METAR EHVK 171155Z AUTO 23009KT 210V270 7000 -RA FEW005 SCT006 BKN007 FEW015CB 07/07 Q1017 YLO 21010KT 8000 SCT012 BKN015 TEMPO 4500 DZRA SCT006 BKN010
Observed Flight Rules
Dec-17 @ 11:55 UTC
(12 minutes ago)
IFR
Wind Visibility
230° at 9 knots 7,001 meters
Clouds
  • Few at 500' AGL
  • Scattered at 600' AGL
  • Broken at 700' AGL
  • Few at 1,500' AGL
Conditions
  • Light Rain
Temperature Dewpoint
7°C / 45°F 7°C / 45°F
Humidity Altimeter Pressure
100% 30.03" Hg 1017 hPa